DRI-NNSC Building Weather observations

Data are for 10 minute period ending at time listed.
 Day   Time   Solar   Ave.   Ave.  Ave.  Vector  Max.   Baro.   Total    
  of    of     Rad.   Air    Rel.  Wind   Wind   Wind  Press.  Precip.   
Year   Day            Temp.  Hum.  Speed  Dir.   Gust                    
2016   (PST)  Kw/m2    F      %     mph   deg.    mph    mb.     in.     
-------------------------------------------------------------------------
 181    8:40   0.64   79.5     0    2.2   129      6   852.2    0.00 
 181    8:50   0.67   80.7     0    2.6   161      5   852.2    0.00 
 181    9:00   0.62   81.0     0    3.2   165      6   852.2    0.00 
 181    9:10   0.65   81.4     0    1.6   152      6   852.1    0.00 
 181    9:20   0.80   83.0     0    1.8    51      7   852.0    0.00 
 181    9:30   0.82   83.1     0    2.3    30      5   852.0    0.00 
 181    9:40   0.82   84.6     0    2.9   155      7   851.9    0.00 
 181    9:50   0.82   84.4     0    3.1   126      8   851.8    0.00 
 181   10:00   0.84   85.1     0    2.5   135      6   851.8    0.00 
 181   10:10   0.86   85.2     0    3.4   148      8   851.7    0.00 
 181   10:20   0.88   85.3     0    2.6   227      7   851.7    0.00 
 181   10:30   0.90   85.8     0    2.8   200      9   851.6    0.00 
 181   10:40   0.90   85.8     0    4.7   135     10   851.6    0.00 
 181   10:50   0.93   87.2     0    3.2   196      9   851.5    0.00 
 181   11:00   0.95   87.3     0    4.1   146      9   851.4    0.00 
 181   11:10   0.98   87.9     0    4.3   145     10   851.2    0.00 
 181   11:20   0.98   88.9     0    4.6   173     11   851.1    0.00 
 181   11:30   1.06   89.7     0    4.6   190     10   851.1    0.00 
 181   11:40   1.00   89.6     0    5.7   174     13   851.0    0.00 
 181   11:50   0.93   89.3     0    5.3   207     11   850.8    0.00 
 181   12:00   0.96   89.0     0    3.0   258      8   850.7    0.00 
 181   12:10   0.96   89.6     0    3.8   199     11   850.5    0.00 
 181   12:20   0.97   91.1     0    4.4   178     10   850.5    0.00 
 181   12:30   0.97   89.6     0    5.2   150     16   850.3    0.00 
 181   12:40   0.99   90.7     0    6.4   148     14   850.2    0.00 
 181   12:50   1.02   90.2     0    2.2   105      7   850.0    0.00 
 181   13:00   1.03   92.7     0    5.9   194     12   849.9    0.00 
 181   13:10   1.04   91.3     0    6.7   251     15   849.9    0.00 
 181   13:20   1.03   92.5     0    7.9   259     18   849.7    0.00 
 181   13:30   0.84   91.6     0    9.8   229     23   849.6    0.00 
 181   13:40   0.74   92.2     0    8.1   214     16   849.5    0.00 
 181   13:50   0.92   92.2     0   10.1   226     24   849.4    0.00 
 181   14:00   0.90   91.7     0    8.7   235     21   849.4    0.00 
 181   14:10   0.88   92.2     0   10.6   247     24   849.3    0.00 
 181   14:20   0.86   91.8     0   12.3   244     25   849.2    0.00 
 181   14:30   0.85   91.4     0   10.7   247     22   849.2    0.00 
 181   14:40   0.82   90.9     0   12.7   243     24   849.1    0.00 
 181   14:50   0.81   91.1     0   10.4   261     22   849.1    0.00 
 181   15:00   0.78   91.3     0   10.9   269     23   849.0    0.00 
 181   15:10   0.76   90.9     0   14.1   247     28   849.0    0.00 
 181   15:20   0.73   90.4     0   14.5   241     22   849.0    0.00 
 181   15:30   0.70   90.9     0   12.0   259     20   848.9    0.00 
 181   15:40   0.68   90.5     0   13.1   267     23   848.9    0.00 
 181   15:50   0.65   90.8     0   13.6   256     24   848.8    0.00 
 181   16:00   0.62   90.5     0   15.2   244     28   848.8    0.00 
 181   16:10   0.59   89.8     0   16.4   236     26   848.7    0.00 
 181   16:20   0.56   90.0     0   12.9   248     26   848.7    0.00 
 181   16:30   0.54   89.8     0   13.4   255     28   848.7    0.00 
 181   16:40   0.51   89.6     0   13.2   258     26   848.7    0.00 
 181   16:50   0.48   89.2     0   14.4   254     24   848.7    0.00 
 181   17:00   0.44   88.6     0   12.6   259     21   848.8    0.00 
 181   17:10   0.41   88.5     0   13.1   264     23   848.9    0.00 
 181   17:20   0.37   88.2     0   12.1   260     23   848.9    0.00 
 181   17:30   0.34   87.7     0   13.8   259     26   848.9    0.00 
 181   17:40   0.30   87.0     0   13.6   260     23   849.0    0.00 
 181   17:50   0.26   86.6     0   11.1   252     23   849.1    0.00 
 181   18:00   0.23   86.3     0    9.8   272     18   849.3    0.00 
 181   18:10   0.20   86.1     0    9.5   264     18   849.4    0.00 
 181   18:20   0.17   85.4     0    9.4   262     18   849.5    0.00 
 181   18:30   0.14   85.0     0    8.9   265     15   849.6    0.00 
 181   18:40   0.12   84.5     0    7.8   261     13   849.8    0.00 
 181   18:50   0.10   83.8     0    7.8   273     14   849.9    0.00 
 181   19:00   0.07   83.1     0    7.7   272     14   850.0    0.00 
 181   19:10   0.04   82.3     0    6.4   265     12   850.0    0.00 
 181   19:20   0.02   80.9     0    6.0   278     10   850.0    0.00 
 181   19:30   0.01   79.5     0    6.9   278     12   850.1    0.00 
 181   19:40   0.01   79.3     0    6.9   275     11   850.2    0.00 
 181   19:50   0.00   78.8     0    5.8   270     11   850.3    0.00 
 181   20:00   0.00   78.0     0    5.8   276     12   850.3    0.00 
 181   20:10   0.00   78.0     0    8.0   293     16   850.5    0.00 
 181   20:20   0.00   77.5     0   10.0   300     16   850.5    0.00 
 181   20:30   0.00   77.3     0    8.4   294     15   850.6    0.00 
 181   20:40   0.00   76.7     0    9.7   304     17   850.7    0.00 
 181   20:50   0.00   76.4     0    9.6   304     16   850.7    0.00 
 181   21:00   0.00   76.3     0   10.3   309     17   850.7    0.00 
 181   21:10   0.00   75.5     0    9.8   308     16   850.6    0.00 
 181   21:20   0.00   74.3     0    9.5   322     16   850.7    0.00 
 181   21:30   0.00   74.3     0    9.5   311     15   850.7    0.00 
 181   21:40   0.00   74.1     0    9.1   313     16   850.6    0.00 
 181   21:50   0.00   76.9     0   11.4   308     20   850.4    0.00 
 181   22:00   0.00   76.8     0    8.5   294     19   850.4    0.00 
 181   22:10   0.00   74.8     0    6.9   302     13   850.4    0.00 
 181   22:20   0.00   73.8     0    7.7   326     14   850.3    0.00 
 181   22:30   0.00   73.6     1    7.5   320     15   850.3    0.00 
 181   22:40   0.00   73.0     1    7.5   330     14   850.3    0.00 
 181   22:50   0.00   71.3     0    7.6   334     13   850.3    0.00 
 181   23:00   0.00   71.1     0    7.2   328     14   850.3    0.00 
 181   23:10   0.00   70.1     0    4.2   266     10   850.3    0.00 
 181   23:20   0.00   70.5     0    5.6   230     13   850.2    0.00 
 181   23:30   0.00   71.0     0    3.9   282      8   850.4    0.00 
 181   23:40   0.00   70.7     0    3.1   298      7   850.5    0.00 
 181   23:50   0.00   71.0     0    1.8   197      6   850.6    0.00 
 182    0:00   0.00   70.2     0    2.3    45      4   850.7    0.00 
 182    0:10   0.00   69.7     0    2.4   140      5   850.6    0.00 
 182    0:20   0.00   69.0     0    2.1   186      4   850.6    0.00 
 182    0:30   0.00   69.0     0    1.7   285      4   850.6    0.00 
 182    0:40   0.00   69.9     0    1.5   300      2   850.7    0.00 
 182    0:50   0.00   70.2     0    2.0   303      3   850.6    0.00 
 182    1:00   0.00   69.4     0    2.8   323      4   850.5    0.00 
 182    1:10   0.00   68.2     0    3.1   292      5   850.5    0.00 
 182    1:20   0.00   67.2     0    3.7   300      7   850.4    0.00 
 182    1:30   0.00   65.5     0    4.1   334      7   850.3    0.00 
 182    1:40   0.00   68.2     0    2.1   342      6   850.3    0.00 
 182    1:50   0.00   67.5     0    1.8   294      5   850.3    0.00 
 182    2:00   0.00   64.8     0    4.1   348      7   850.3    0.00 
 182    2:10   0.00   66.5     0    6.3     5     10   850.3    0.00 
 182    2:20   0.00   67.4     0    2.6   337      8   850.3    0.00 
 182    2:30   0.00   65.9     0    2.0   333      8   850.2    0.00 
 182    2:40   0.00   65.2     0    6.0   343     10   850.3    0.00 
 182    2:50   0.00   66.1     0    4.7   349     10   850.3    0.00 
 182    3:00   0.00   65.3     0    2.4   313      5   850.3    0.00 
 182    3:10   0.00   64.1     0    3.4   317      5   850.2    0.00 
 182    3:20   0.00   65.5     0    3.8   353      6   850.2    0.00 
 182    3:30   0.00   64.7     0    1.5   316      4   850.3    0.00 
 182    3:40   0.00   63.2     0    3.2   322      7   850.2    0.00 
 182    3:50   0.00   63.4     0    5.6   324      9   850.3    0.00 
 182    4:00   0.00   64.8     0    4.7   322      8   850.3    0.00 
 182    4:10   0.00   64.8     0    1.1   320      3   850.3    0.00 
 182    4:20   0.00   63.9     0    2.6   323      5   850.3    0.00 
 182    4:30   0.00   64.2     0    3.5   333      6   850.4    0.00 
 182    4:40   0.00   64.8     0    3.0   339      5   850.4    0.00 
 182    4:50   0.01   64.7     0    2.5   330      4   850.5    0.00 
 182    5:00   0.01   64.5     0    2.1   313      4   850.5    0.00 
 182    5:10   0.01   63.7     0    2.2    38      3   850.4    0.00 
 182    5:20   0.02   63.6     0    2.3    32      3   850.6    0.00 
 182    5:30   0.05   63.8     0    0.9    40      3   850.7    0.00 
 182    5:40   0.11   65.1     0    0.6   288      3   850.7    0.00 
 182    5:50   0.13   65.9     0    1.0    57      4   850.7    0.00 
 182    6:00   0.16   66.0     0    1.0    50      3   850.8    0.00 
 182    6:10   0.19   65.7     0    1.6    64      4   850.9    0.00 
 182    6:20   0.22   68.3     0    0.3   178      2   850.9    0.00 
 182    6:30   0.25   67.0     0    2.4   167      4   850.8    0.00 
 182    6:40   0.28   66.3     0    1.3   154      4   850.9    0.00 
 182    6:50   0.31   67.5     0    1.7   171      4   850.8    0.00 
 182    7:00   0.35   68.1     0    0.9   183      2   850.8    0.00 
 182    7:10   0.38   68.6     0    1.5   203      3   850.8    0.00 
 182    7:20   0.41   69.5     0    1.9   191      4   850.8    0.00 
 182    7:30   0.45   69.9     0    2.0   204      4   850.8    0.00 
 182    7:40   0.48   71.6     0    2.6   167      5   850.8    0.00 
 182    7:50   0.51   71.8     0    3.5   170      6   850.8    0.00 
 182    8:00   0.54   73.0     0    3.0   175      7   850.9    0.00 
 182    8:10   0.57   73.6     0    3.1   169      8   850.8    0.00 
 182    8:20   0.60   74.1     0    3.8   168      6   850.8    0.00 
 182    8:30   0.63   74.4     0    3.4   159      6   850.8    0.00 

Return to NNSC graphs page.


Western Regional Climate Center,wrcc@dri.edu